createdAt,value
2017-03-03T00:00:06.339Z,927.66
2017-03-03T00:00:20.977Z,927.65
2017-03-03T00:00:35.574Z,927.67
2017-03-03T00:00:50.208Z,927.67
2017-03-03T00:01:04.800Z,927.67
2017-03-03T00:01:19.376Z,927.72
2017-03-03T00:01:34.003Z,927.69
2017-03-03T00:01:51.231Z,927.73
2017-03-03T00:02:05.876Z,927.69
2017-03-03T00:02:20.492Z,927.73
2017-03-03T00:02:35.097Z,927.71
2017-03-03T00:02:49.992Z,927.73
2017-03-03T00:03:05.497Z,927.73
2017-03-03T00:03:20.065Z,927.72
2017-03-03T00:03:34.676Z,927.72
2017-03-03T00:03:49.548Z,927.75
2017-03-03T00:04:04.255Z,927.75
2017-03-03T00:04:18.864Z,927.73
2017-03-03T00:04:33.540Z,927.77
2017-03-03T00:04:48.125Z,927.75
2017-03-03T00:05:02.771Z,927.78
2017-03-03T00:05:18.703Z,927.73
2017-03-03T00:05:33.346Z,927.75
2017-03-03T00:05:47.998Z,927.78
2017-03-03T00:06:02.646Z,927.77
2017-03-03T00:06:17.272Z,927.79
2017-03-03T00:06:31.891Z,927.8
2017-03-03T00:06:46.513Z,927.83
2017-03-03T00:07:01.129Z,927.82
2017-03-03T00:07:15.975Z,927.83
2017-03-03T00:07:30.612Z,927.8
2017-03-03T00:07:45.256Z,927.85
2017-03-03T00:07:59.911Z,927.88
2017-03-03T00:08:14.575Z,927.87
2017-03-03T00:08:29.216Z,927.85
2017-03-03T00:08:43.846Z,927.85
2017-03-03T00:08:58.545Z,927.86
2017-03-03T00:09:13.232Z,927.86
2017-03-03T00:09:27.858Z,927.88
2017-03-03T00:09:42.459Z,927.9
2017-03-03T00:09:57.144Z,927.89
2017-03-03T00:10:11.764Z,927.92
2017-03-03T00:10:26.420Z,927.92
2017-03-03T00:10:41.230Z,927.93
2017-03-03T00:10:55.887Z,927.96
2017-03-03T00:11:10.571Z,927.95
2017-03-03T00:11:25.143Z,927.91
2017-03-03T00:11:39.814Z,927.91
2017-03-03T00:11:54.430Z,927.9
2017-03-03T00:12:09.065Z,927.89
2017-03-03T00:12:23.657Z,927.9
2017-03-03T00:12:38.335Z,927.95
2017-03-03T00:12:53.016Z,927.94
2017-03-03T00:13:07.682Z,927.96
2017-03-03T00:13:22.263Z,927.95
2017-03-03T00:13:36.900Z,927.94
2017-03-03T00:13:51.523Z,927.94
2017-03-03T00:14:06.191Z,927.96
2017-03-03T00:14:20.862Z,927.96
2017-03-03T00:14:35.472Z,927.95
2017-03-03T00:14:50.177Z,927.96
2017-03-03T00:15:04.825Z,927.98
2017-03-03T00:15:19.478Z,927.98
2017-03-03T00:15:34.098Z,927.95
2017-03-03T00:15:48.746Z,927.98
2017-03-03T00:16:03.415Z,927.98
2017-03-03T00:16:17.988Z,927.99
2017-03-03T00:16:32.599Z,927.98
2017-03-03T00:16:47.227Z,927.99
2017-03-03T00:17:01.934Z,927.97
2017-03-03T00:17:16.540Z,927.98
2017-03-03T00:17:31.199Z,927.99
2017-03-03T00:17:46.037Z,928.01
2017-03-03T00:18:00.654Z,928.02
2017-03-03T00:18:15.356Z,927.98
2017-03-03T00:18:29.963Z,928.01
2017-03-03T00:18:44.619Z,928.02
2017-03-03T00:18:59.520Z,928.03
2017-03-03T00:19:14.189Z,928.02
2017-03-03T00:19:28.812Z,928.04
2017-03-03T00:19:43.435Z,928.03
2017-03-03T00:19:58.112Z,928.04
2017-03-03T00:20:12.676Z,928.04
2017-03-03T00:20:27.295Z,928.02
2017-03-03T00:20:41.966Z,928.03
2017-03-03T00:20:56.623Z,928.04
2017-03-03T00:21:11.312Z,928
2017-03-03T00:21:25.938Z,928.05
2017-03-03T00:21:40.554Z,928
2017-03-03T00:21:55.779Z,928.02
2017-03-03T00:22:10.459Z,928.02
2017-03-03T00:22:25.099Z,928.01
2017-03-03T00:22:39.690Z,928.04
2017-03-03T00:22:54.208Z,928.04
2017-03-03T00:23:08.831Z,928.06
2017-03-03T00:23:23.419Z,928.03
2017-03-03T00:23:38.015Z,928.03
2017-03-03T00:23:52.707Z,928.06
2017-03-03T00:24:07.382Z,928.04
2017-03-03T00:24:22.005Z,928.02
2017-03-03T00:24:36.699Z,928.02
2017-03-03T00:24:51.282Z,928.03
2017-03-03T00:25:05.923Z,928.02
2017-03-03T00:25:20.576Z,928.01
2017-03-03T00:25:35.238Z,928.04
2017-03-03T00:25:49.816Z,928.04
2017-03-03T00:26:04.433Z,928.06
2017-03-03T00:26:19.121Z,928.08
2017-03-03T00:26:33.774Z,928.06
2017-03-03T00:26:48.398Z,928.04
2017-03-03T00:27:02.997Z,928.07
2017-03-03T00:27:17.648Z,928.08
2017-03-03T00:27:32.307Z,928.04
2017-03-03T00:27:47.173Z,928.06
2017-03-03T00:28:01.770Z,928.08
2017-03-03T00:28:16.311Z,928.08
2017-03-03T00:28:30.915Z,928.09
2017-03-03T00:28:45.540Z,928.1
2017-03-03T00:29:00.201Z,928.11
2017-03-03T00:29:14.808Z,928.11
2017-03-03T00:29:29.403Z,928.13
2017-03-03T00:29:44.053Z,928.15
2017-03-03T00:29:58.645Z,928.12
2017-03-03T00:30:13.301Z,928.14
2017-03-03T00:30:28.178Z,928.14
2017-03-03T00:30:42.884Z,928.2
2017-03-03T00:30:57.510Z,928.14
2017-03-03T00:31:12.167Z,928.19
2017-03-03T00:31:26.779Z,928.19
2017-03-03T00:31:41.451Z,928.15
2017-03-03T00:31:56.056Z,928.17
2017-03-03T00:32:10.684Z,928.2
2017-03-03T00:32:25.296Z,928.22
2017-03-03T00:32:39.902Z,928.19
2017-03-03T00:32:54.585Z,928.21
2017-03-03T00:33:09.197Z,928.21
2017-03-03T00:33:23.862Z,928.21
2017-03-03T00:33:38.563Z,928.17
2017-03-03T00:33:53.146Z,928.19
2017-03-03T00:34:07.919Z,928.24
2017-03-03T00:34:22.531Z,928.22
2017-03-03T00:34:37.169Z,928.22
2017-03-03T00:34:51.767Z,928.22
2017-03-03T00:35:06.429Z,928.24
2017-03-03T00:35:21.090Z,928.2
2017-03-03T00:35:35.768Z,928.26
2017-03-03T00:35:50.415Z,928.25
2017-03-03T00:36:05.051Z,928.24
2017-03-03T00:36:19.678Z,928.25
2017-03-03T00:36:34.307Z,928.23
2017-03-03T00:36:48.916Z,928.24
2017-03-03T00:37:03.547Z,928.24
2017-03-03T00:37:18.175Z,928.23
2017-03-03T00:37:32.843Z,928.25
2017-03-03T00:37:47.411Z,928.28
2017-03-03T00:38:02.082Z,928.26
2017-03-03T00:38:16.784Z,928.28
2017-03-03T00:38:31.453Z,928.28
2017-03-03T00:38:46.092Z,928.31
2017-03-03T00:39:00.726Z,928.28
2017-03-03T00:39:15.396Z,928.28
2017-03-03T00:39:30.023Z,928.28
2017-03-03T00:39:44.608Z,928.32
2017-03-03T00:39:59.204Z,928.31
2017-03-03T00:40:13.758Z,928.31
2017-03-03T00:40:28.337Z,928.31
2017-03-03T00:40:43.024Z,928.33
2017-03-03T00:40:57.698Z,928.29
2017-03-03T00:41:12.297Z,928.31
2017-03-03T00:41:26.932Z,928.34
2017-03-03T00:41:41.599Z,928.33
2017-03-03T00:41:56.173Z,928.38
2017-03-03T00:42:10.791Z,928.32
2017-03-03T00:42:25.435Z,928.34
2017-03-03T00:42:40.038Z,928.29
2017-03-03T00:42:54.711Z,928.35
2017-03-03T00:43:09.330Z,928.31
2017-03-03T00:43:23.911Z,928.37
2017-03-03T00:43:38.505Z,928.37
2017-03-03T00:43:53.165Z,928.35
2017-03-03T00:44:07.748Z,928.35
2017-03-03T00:44:22.335Z,928.38
2017-03-03T00:44:36.949Z,928.38
2017-03-03T00:44:51.598Z,928.36
2017-03-03T00:45:06.254Z,928.35
2017-03-03T00:45:20.864Z,928.39
2017-03-03T00:45:35.503Z,928.37
2017-03-03T00:45:50.123Z,928.38
2017-03-03T00:46:04.787Z,928.38
2017-03-03T00:46:19.411Z,928.41
2017-03-03T00:46:34.023Z,928.38
2017-03-03T00:46:48.682Z,928.44
2017-03-03T00:47:03.263Z,928.39
2017-03-03T00:47:17.852Z,928.4
2017-03-03T00:47:32.449Z,928.42
2017-03-03T00:47:47.086Z,928.42
2017-03-03T00:48:01.726Z,928.45
2017-03-03T00:48:16.343Z,928.45
2017-03-03T00:48:30.979Z,928.44
2017-03-03T00:48:45.660Z,928.44
2017-03-03T00:49:00.285Z,928.45
2017-03-03T00:49:15.146Z,928.45
2017-03-03T00:49:29.741Z,928.46
2017-03-03T00:49:44.396Z,928.45
2017-03-03T00:49:59.017Z,928.46
2017-03-03T00:50:13.622Z,928.49
2017-03-03T00:50:28.252Z,928.5
2017-03-03T00:50:42.940Z,928.48
2017-03-03T00:50:57.611Z,928.47
2017-03-03T00:51:12.255Z,928.48
2017-03-03T00:51:26.870Z,928.48
2017-03-03T00:51:41.516Z,928.5
2017-03-03T00:51:56.225Z,928.47
2017-03-03T00:52:10.879Z,928.5
2017-03-03T00:52:25.541Z,928.5
2017-03-03T00:52:40.168Z,928.51
2017-03-03T00:52:54.766Z,928.48
2017-03-03T00:53:09.436Z,928.48
2017-03-03T00:53:24.053Z,928.47
2017-03-03T00:53:38.686Z,928.5
2017-03-03T00:53:53.323Z,928.5
2017-03-03T00:54:07.967Z,928.49
2017-03-03T00:54:22.635Z,928.5
2017-03-03T00:54:37.273Z,928.49
2017-03-03T00:54:51.924Z,928.5
2017-03-03T00:55:06.541Z,928.46
2017-03-03T00:55:21.218Z,928.49
2017-03-03T00:55:35.858Z,928.48
2017-03-03T00:55:50.517Z,928.51
2017-03-03T00:56:05.186Z,928.49
2017-03-03T00:56:19.783Z,928.49
2017-03-03T00:56:34.411Z,928.46
2017-03-03T00:56:49.010Z,928.46
2017-03-03T00:57:03.658Z,928.51
2017-03-03T00:57:18.245Z,928.47
2017-03-03T00:57:32.841Z,928.49
2017-03-03T00:57:47.665Z,928.51
2017-03-03T00:58:02.311Z,928.49
2017-03-03T00:58:16.955Z,928.49
2017-03-03T00:58:31.581Z,928.47
2017-03-03T00:58:46.241Z,928.5
2017-03-03T00:59:00.868Z,928.49
2017-03-03T00:59:15.524Z,928.5
2017-03-03T00:59:30.127Z,928.51
2017-03-03T00:59:44.740Z,928.5
2017-03-03T00:59:59.398Z,928.49
2017-03-03T01:00:14.048Z,928.49
2017-03-03T01:00:28.635Z,928.5
2017-03-03T01:00:43.266Z,928.47
2017-03-03T01:00:57.884Z,928.51
2017-03-03T01:01:12.486Z,928.5
2017-03-03T01:01:27.142Z,928.5
2017-03-03T01:01:41.826Z,928.49
2017-03-03T01:01:56.447Z,928.55
2017-03-03T01:02:11.104Z,928.53
2017-03-03T01:02:25.763Z,928.53
2017-03-03T01:02:40.333Z,928.54
2017-03-03T01:02:54.970Z,928.52
2017-03-03T01:03:09.528Z,928.52
2017-03-03T01:03:24.148Z,928.49
2017-03-03T01:03:38.768Z,928.53
2017-03-03T01:03:53.536Z,928.51
2017-03-03T01:04:08.216Z,928.51
2017-03-03T01:04:23.054Z,928.53
2017-03-03T01:04:37.677Z,928.54
2017-03-03T01:04:52.769Z,928.52
2017-03-03T01:05:07.431Z,928.53
2017-03-03T01:05:22.081Z,928.51
2017-03-03T01:05:36.716Z,928.5
2017-03-03T01:05:51.357Z,928.51
2017-03-03T01:06:05.965Z,928.52
2017-03-03T01:06:20.590Z,928.54
2017-03-03T01:06:35.272Z,928.54
2017-03-03T01:06:49.939Z,928.52
2017-03-03T01:07:04.633Z,928.53
2017-03-03T01:07:19.240Z,928.51
2017-03-03T01:07:33.857Z,928.53
2017-03-03T01:07:48.484Z,928.5
2017-03-03T01:08:03.048Z,928.49
2017-03-03T01:08:17.667Z,928.53
2017-03-03T01:08:32.353Z,928.51
2017-03-03T01:08:46.950Z,928.5
2017-03-03T01:09:01.600Z,928.48
2017-03-03T01:09:16.255Z,928.49
2017-03-03T01:09:30.881Z,928.52
2017-03-03T01:09:45.480Z,928.49
2017-03-03T01:10:00.125Z,928.51
2017-03-03T01:10:14.726Z,928.47
2017-03-03T01:10:29.318Z,928.51
2017-03-03T01:10:43.972Z,928.49
2017-03-03T01:10:58.595Z,928.49
2017-03-03T01:11:13.211Z,928.5
2017-03-03T01:11:27.822Z,928.48
2017-03-03T01:11:42.396Z,928.5
2017-03-03T01:11:57.019Z,928.48
2017-03-03T01:12:11.647Z,928.48
2017-03-03T01:12:26.319Z,928.47
2017-03-03T01:12:40.942Z,928.47
2017-03-03T01:12:55.571Z,928.49
2017-03-03T01:13:10.204Z,928.46
2017-03-03T01:13:24.832Z,928.46
2017-03-03T01:13:39.499Z,928.48
2017-03-03T01:13:54.170Z,928.51
2017-03-03T01:14:08.816Z,928.49
2017-03-03T01:14:23.497Z,928.47
2017-03-03T01:14:38.135Z,928.48
2017-03-03T01:14:52.951Z,928.46
2017-03-03T01:15:07.604Z,928.46
2017-03-03T01:15:22.257Z,928.43
2017-03-03T01:15:36.913Z,928.48
2017-03-03T01:15:51.524Z,928.46
2017-03-03T01:16:06.129Z,928.5
2017-03-03T01:16:20.745Z,928.46
2017-03-03T01:16:35.386Z,928.51
2017-03-03T01:16:50.053Z,928.47
2017-03-03T01:17:04.715Z,928.47
2017-03-03T01:17:19.375Z,928.48
2017-03-03T01:17:34.052Z,928.46
2017-03-03T01:17:48.738Z,928.47
2017-03-03T01:18:03.290Z,928.48
2017-03-03T01:18:17.946Z,928.47
2017-03-03T01:18:32.494Z,928.47
2017-03-03T01:18:47.077Z,928.42
2017-03-03T01:19:01.768Z,928.47
2017-03-03T01:19:16.403Z,928.49
2017-03-03T01:19:31.235Z,928.49
2017-03-03T01:19:46.067Z,928.47
2017-03-03T01:20:00.671Z,928.49
2017-03-03T01:20:15.314Z,928.47
2017-03-03T01:20:29.900Z,928.48
2017-03-03T01:20:44.541Z,928.47
2017-03-03T01:20:59.194Z,928.48
2017-03-03T01:21:13.862Z,928.49
2017-03-03T01:21:28.527Z,928.49
2017-03-03T01:21:43.200Z,928.52
2017-03-03T01:21:57.815Z,928.51
2017-03-03T01:22:12.471Z,928.52
2017-03-03T01:22:27.125Z,928.53
2017-03-03T01:22:41.955Z,928.54
2017-03-03T01:22:56.559Z,928.53
2017-03-03T01:23:11.119Z,928.52
2017-03-03T01:23:25.723Z,928.5
2017-03-03T01:23:40.334Z,928.51
2017-03-03T01:23:54.954Z,928.53
2017-03-03T01:24:09.591Z,928.52
2017-03-03T01:24:24.226Z,928.51
2017-03-03T01:24:38.856Z,928.51
2017-03-03T01:24:53.482Z,928.49
2017-03-03T01:25:08.157Z,928.49
2017-03-03T01:25:22.818Z,928.46
2017-03-03T01:25:37.456Z,928.48
2017-03-03T01:25:52.151Z,928.49
2017-03-03T01:26:06.804Z,928.49
2017-03-03T01:26:21.377Z,928.49
2017-03-03T01:26:35.988Z,928.5
2017-03-03T01:26:50.803Z,928.51
2017-03-03T01:27:05.619Z,928.47
2017-03-03T01:27:20.234Z,928.52
2017-03-03T01:27:34.841Z,928.48
2017-03-03T01:27:49.463Z,928.46
2017-03-03T01:28:04.047Z,928.46
2017-03-03T01:28:18.698Z,928.49
2017-03-03T01:28:33.368Z,928.49
2017-03-03T01:28:48.001Z,928.5
2017-03-03T01:29:02.582Z,928.49
2017-03-03T01:29:17.244Z,928.5
2017-03-03T01:29:31.890Z,928.49
2017-03-03T01:29:46.508Z,928.5
2017-03-03T01:30:01.139Z,928.49
2017-03-03T01:30:15.772Z,928.5
2017-03-03T01:30:30.433Z,928.54
2017-03-03T01:30:45.063Z,928.53
2017-03-03T01:30:59.657Z,928.55
2017-03-03T01:31:14.339Z,928.49
2017-03-03T01:31:28.962Z,928.52
2017-03-03T01:31:43.554Z,928.53
2017-03-03T01:31:58.247Z,928.52
2017-03-03T01:32:12.906Z,928.52
2017-03-03T01:32:27.538Z,928.53
2017-03-03T01:32:42.135Z,928.5
2017-03-03T01:32:56.792Z,928.5
2017-03-03T01:33:11.393Z,928.48
2017-03-03T01:33:26.033Z,928.5
2017-03-03T01:33:40.595Z,928.49
2017-03-03T01:33:55.207Z,928.48
2017-03-03T01:34:09.869Z,928.48
2017-03-03T01:34:24.473Z,928.49
2017-03-03T01:34:39.274Z,928.52
2017-03-03T01:34:53.904Z,928.48
2017-03-03T01:35:08.557Z,928.5
2017-03-03T01:35:23.224Z,928.52
2017-03-03T01:35:37.881Z,928.5
2017-03-03T01:35:52.524Z,928.5
2017-03-03T01:36:07.127Z,928.51
2017-03-03T01:36:21.704Z,928.47
2017-03-03T01:36:36.263Z,928.51
2017-03-03T01:36:51.094Z,928.51
2017-03-03T01:37:05.696Z,928.47
2017-03-03T01:37:20.330Z,928.47
2017-03-03T01:37:34.929Z,928.48
2017-03-03T01:37:49.598Z,928.46
2017-03-03T01:38:04.268Z,928.51
2017-03-03T01:38:18.922Z,928.5
2017-03-03T01:38:33.570Z,928.47
2017-03-03T01:38:48.235Z,928.49
2017-03-03T01:39:02.895Z,928.48
2017-03-03T01:39:17.579Z,928.47
2017-03-03T01:39:32.183Z,928.51
2017-03-03T01:39:46.781Z,928.46
2017-03-03T01:40:01.408Z,928.47
2017-03-03T01:40:16.009Z,928.47
2017-03-03T01:40:30.667Z,928.45
2017-03-03T01:40:45.335Z,928.42
2017-03-03T01:40:59.937Z,928.46
2017-03-03T01:41:14.515Z,928.48
2017-03-03T01:41:29.127Z,928.49
2017-03-03T01:41:43.779Z,928.48
2017-03-03T01:41:58.434Z,928.44
2017-03-03T01:42:12.993Z,928.46
2017-03-03T01:42:27.611Z,928.45
2017-03-03T01:42:42.224Z,928.44
2017-03-03T01:42:56.877Z,928.45
2017-03-03T01:43:11.535Z,928.48
2017-03-03T01:43:26.150Z,928.43
2017-03-03T01:43:40.808Z,928.46
2017-03-03T01:43:55.447Z,928.45
2017-03-03T01:44:10.055Z,928.46
2017-03-03T01:44:24.634Z,928.46
2017-03-03T01:44:39.293Z,928.46
2017-03-03T01:44:53.951Z,928.46
2017-03-03T01:45:08.576Z,928.49
2017-03-03T01:45:23.182Z,928.48
2017-03-03T01:45:37.819Z,928.46
2017-03-03T01:45:52.462Z,928.49
2017-03-03T01:46:07.054Z,928.5
2017-03-03T01:46:21.650Z,928.49
2017-03-03T01:46:36.339Z,928.48
2017-03-03T01:46:50.998Z,928.47
2017-03-03T01:47:05.587Z,928.47
2017-03-03T01:47:20.252Z,928.48
2017-03-03T01:47:34.859Z,928.47
2017-03-03T01:47:49.454Z,928.52
2017-03-03T01:48:04.077Z,928.52
2017-03-03T01:48:18.730Z,928.51
2017-03-03T01:48:33.347Z,928.48
2017-03-03T01:48:47.982Z,928.49
2017-03-03T01:49:02.586Z,928.48
2017-03-03T01:49:17.178Z,928.52
2017-03-03T01:49:31.816Z,928.5
2017-03-03T01:49:46.596Z,928.48
2017-03-03T01:50:01.253Z,928.49
2017-03-03T01:50:15.902Z,928.5
2017-03-03T01:50:30.470Z,928.52
2017-03-03T01:50:45.096Z,928.54
2017-03-03T01:50:59.704Z,928.51
2017-03-03T01:51:14.289Z,928.51
2017-03-03T01:51:28.931Z,928.53
2017-03-03T01:51:43.582Z,928.49
2017-03-03T01:51:58.261Z,928.48
2017-03-03T01:52:12.880Z,928.5
2017-03-03T01:52:27.512Z,928.52
2017-03-03T01:52:42.102Z,928.49
2017-03-03T01:52:56.670Z,928.51
2017-03-03T01:53:11.307Z,928.49
2017-03-03T01:53:25.942Z,928.5
2017-03-03T01:53:40.653Z,928.49
2017-03-03T01:53:55.317Z,928.46
2017-03-03T01:54:09.876Z,928.5
2017-03-03T01:54:24.522Z,928.49
2017-03-03T01:54:39.144Z,928.51
2017-03-03T01:54:53.700Z,928.48
2017-03-03T01:55:08.326Z,928.5
2017-03-03T01:55:22.953Z,928.49
2017-03-03T01:55:37.610Z,928.48
2017-03-03T01:55:52.208Z,928.48
2017-03-03T01:56:06.865Z,928.46
2017-03-03T01:56:21.502Z,928.5
2017-03-03T01:56:36.115Z,928.49
2017-03-03T01:56:50.720Z,928.47
2017-03-03T01:57:05.376Z,928.47
2017-03-03T01:57:19.935Z,928.49
2017-03-03T01:57:34.533Z,928.48
2017-03-03T01:57:49.118Z,928.45
2017-03-03T01:58:03.670Z,928.49
2017-03-03T01:58:18.250Z,928.46
2017-03-03T01:58:32.828Z,928.5
2017-03-03T01:58:47.438Z,928.48
2017-03-03T01:59:02.061Z,928.44
2017-03-03T01:59:16.658Z,928.44
2017-03-03T01:59:31.297Z,928.49
2017-03-03T01:59:45.875Z,928.53
2017-03-03T02:00:00.441Z,928.48
2017-03-03T02:00:15.059Z,928.49
2017-03-03T02:00:29.605Z,928.5
2017-03-03T02:00:44.161Z,928.49
2017-03-03T02:00:58.698Z,928.48
2017-03-03T02:01:13.344Z,928.46
2017-03-03T02:01:27.951Z,928.47
2017-03-03T02:01:42.557Z,928.49
2017-03-03T02:01:57.269Z,928.48
2017-03-03T02:02:11.862Z,928.5
2017-03-03T02:02:26.400Z,928.49
2017-03-03T02:02:41.007Z,928.47
2017-03-03T02:02:55.589Z,928.48
2017-03-03T02:03:10.256Z,928.49
2017-03-03T02:03:24.856Z,928.52
2017-03-03T02:03:39.428Z,928.47
2017-03-03T02:03:54.110Z,928.47
2017-03-03T02:04:08.741Z,928.48
2017-03-03T02:04:23.352Z,928.46
2017-03-03T02:04:37.965Z,928.49
2017-03-03T02:04:53.166Z,928.47
2017-03-03T02:05:07.743Z,928.48
2017-03-03T02:05:22.310Z,928.46
2017-03-03T02:05:36.887Z,928.42
2017-03-03T02:05:51.467Z,928.43
2017-03-03T02:06:06.024Z,928.47
2017-03-03T02:06:20.651Z,928.43
2017-03-03T02:06:35.268Z,928.44
2017-03-03T02:06:49.891Z,928.43
2017-03-03T02:07:04.523Z,928.42
2017-03-03T02:07:19.347Z,928.43
2017-03-03T02:07:33.874Z,928.46
2017-03-03T02:07:48.467Z,928.45
2017-03-03T02:08:03.042Z,928.42
2017-03-03T02:08:17.597Z,928.42
2017-03-03T02:08:32.233Z,928.44
2017-03-03T02:08:46.832Z,928.45
2017-03-03T02:09:01.440Z,928.46
2017-03-03T02:09:16.087Z,928.41
2017-03-03T02:09:30.693Z,928.44
2017-03-03T02:09:45.320Z,928.43
2017-03-03T02:09:59.916Z,928.43
2017-03-03T02:10:14.514Z,928.42
2017-03-03T02:10:29.179Z,928.46
2017-03-03T02:10:43.869Z,928.43
2017-03-03T02:10:58.485Z,928.43
2017-03-03T02:11:13.050Z,928.42
2017-03-03T02:11:27.625Z,928.45
2017-03-03T02:11:42.265Z,928.44
2017-03-03T02:11:56.890Z,928.46
2017-03-03T02:12:11.499Z,928.45
2017-03-03T02:12:26.087Z,928.44
2017-03-03T02:12:40.678Z,928.45
2017-03-03T02:12:55.322Z,928.47
2017-03-03T02:13:09.922Z,928.48
2017-03-03T02:13:24.529Z,928.44
2017-03-03T02:13:39.122Z,928.46
2017-03-03T02:13:53.744Z,928.46
2017-03-03T02:14:08.331Z,928.45
2017-03-03T02:14:22.926Z,928.42
2017-03-03T02:14:37.563Z,928.45
2017-03-03T02:14:52.135Z,928.47
2017-03-03T02:15:06.779Z,928.47
2017-03-03T02:15:21.394Z,928.47
2017-03-03T02:15:36.032Z,928.46
2017-03-03T02:15:50.668Z,928.46
2017-03-03T02:16:05.202Z,928.47
2017-03-03T02:16:19.798Z,928.5
2017-03-03T02:16:34.428Z,928.5
2017-03-03T02:16:48.965Z,928.48
2017-03-03T02:17:03.594Z,928.48
2017-03-03T02:17:18.175Z,928.47
2017-03-03T02:17:32.754Z,928.47
2017-03-03T02:17:47.517Z,928.5
2017-03-03T02:18:02.127Z,928.48
2017-03-03T02:18:16.729Z,928.49
2017-03-03T02:18:31.299Z,928.48
2017-03-03T02:18:46.065Z,928.5
2017-03-03T02:19:00.667Z,928.47
2017-03-03T02:19:15.253Z,928.48
2017-03-03T02:19:29.804Z,928.5
2017-03-03T02:19:44.390Z,928.49
2017-03-03T02:19:59.234Z,928.5
2017-03-03T02:20:13.818Z,928.49
2017-03-03T02:20:28.377Z,928.48
2017-03-03T02:20:42.941Z,928.49
2017-03-03T02:20:57.563Z,928.46
2017-03-03T02:21:12.083Z,928.49
2017-03-03T02:21:26.681Z,928.47
2017-03-03T02:21:41.264Z,928.47
2017-03-03T02:21:55.852Z,928.5
2017-03-03T02:22:10.442Z,928.44
2017-03-03T02:22:25.063Z,928.53
2017-03-03T02:22:39.663Z,928.47
2017-03-03T02:22:54.236Z,928.48
2017-03-03T02:23:08.843Z,928.47
2017-03-03T02:23:23.430Z,928.46
2017-03-03T02:23:37.989Z,928.44
2017-03-03T02:23:52.622Z,928.47
2017-03-03T02:24:07.226Z,928.49
2017-03-03T02:24:21.819Z,928.46
2017-03-03T02:24:36.459Z,928.47
2017-03-03T02:24:51.114Z,928.45
2017-03-03T02:25:05.728Z,928.42
2017-03-03T02:25:20.259Z,928.45
2017-03-03T02:25:34.851Z,928.43
2017-03-03T02:25:49.480Z,928.42
2017-03-03T02:26:04.124Z,928.44
2017-03-03T02:26:18.689Z,928.39
2017-03-03T02:26:33.312Z,928.42
2017-03-03T02:26:47.944Z,928.42
2017-03-03T02:27:02.523Z,928.45
2017-03-03T02:27:17.123Z,928.43
2017-03-03T02:27:31.703Z,928.42
2017-03-03T02:27:46.295Z,928.43
2017-03-03T02:28:00.918Z,928.43
2017-03-03T02:28:15.516Z,928.42
2017-03-03T02:28:30.121Z,928.45
2017-03-03T02:28:45.193Z,928.44
2017-03-03T02:28:59.801Z,928.44
2017-03-03T02:29:14.473Z,928.43
2017-03-03T02:29:29.056Z,928.4
2017-03-03T02:29:43.909Z,928.45
2017-03-03T02:29:58.530Z,928.41
2017-03-03T02:30:13.176Z,928.39
2017-03-03T02:30:27.771Z,928.39
2017-03-03T02:30:42.375Z,928.39
2017-03-03T02:30:56.965Z,928.44
2017-03-03T02:31:11.635Z,928.43
2017-03-03T02:31:26.257Z,928.41
2017-03-03T02:31:40.877Z,928.43
2017-03-03T02:31:55.416Z,928.4
2017-03-03T02:32:10.007Z,928.42
2017-03-03T02:32:24.618Z,928.41
2017-03-03T02:32:39.238Z,928.39
2017-03-03T02:32:53.943Z,928.41
2017-03-03T02:33:08.527Z,928.42
2017-03-03T02:33:23.082Z,928.4
2017-03-03T02:33:37.667Z,928.41
2017-03-03T02:33:52.255Z,928.42
2017-03-03T02:34:06.852Z,928.39
2017-03-03T02:34:21.524Z,928.37
2017-03-03T02:34:36.176Z,928.42
2017-03-03T02:34:50.811Z,928.35
2017-03-03T02:35:05.710Z,928.39
2017-03-03T02:35:20.332Z,928.41
2017-03-03T02:35:34.931Z,928.38
2017-03-03T02:35:49.493Z,928.39
2017-03-03T02:36:04.228Z,928.4
2017-03-03T02:36:18.839Z,928.34
2017-03-03T02:36:33.454Z,928.37
2017-03-03T02:36:48.108Z,928.4
2017-03-03T02:37:02.674Z,928.36
2017-03-03T02:37:17.263Z,928.36
2017-03-03T02:37:31.892Z,928.39
2017-03-03T02:37:46.488Z,928.37
2017-03-03T02:38:01.064Z,928.41
2017-03-03T02:38:15.668Z,928.34
2017-03-03T02:38:30.293Z,928.37
2017-03-03T02:38:44.925Z,928.38
2017-03-03T02:38:59.469Z,928.34
2017-03-03T02:39:14.020Z,928.39
2017-03-03T02:39:28.637Z,928.36
2017-03-03T02:39:43.322Z,928.38
2017-03-03T02:39:57.990Z,928.4
2017-03-03T02:40:12.608Z,928.36
2017-03-03T02:40:27.210Z,928.34
2017-03-03T02:40:41.887Z,928.37
2017-03-03T02:40:56.476Z,928.38
2017-03-03T02:41:11.048Z,928.39
2017-03-03T02:41:25.704Z,928.41
2017-03-03T02:41:40.310Z,928.41
2017-03-03T02:41:54.866Z,928.4
2017-03-03T02:42:09.520Z,928.41
2017-03-03T02:42:24.132Z,928.41
2017-03-03T02:42:38.696Z,928.39
2017-03-03T02:42:53.318Z,928.38
2017-03-03T02:43:07.935Z,928.39
2017-03-03T02:43:22.521Z,928.39
2017-03-03T02:43:37.129Z,928.39
2017-03-03T02:43:51.711Z,928.39
2017-03-03T02:44:06.314Z,928.42
2017-03-03T02:44:20.924Z,928.41
2017-03-03T02:44:36.010Z,928.4
2017-03-03T02:44:50.578Z,928.38
2017-03-03T02:45:05.163Z,928.4
2017-03-03T02:45:19.709Z,928.41
2017-03-03T02:45:34.345Z,928.39
2017-03-03T02:45:48.964Z,928.43
2017-03-03T02:46:03.546Z,928.39
2017-03-03T02:46:18.129Z,928.42
2017-03-03T02:46:32.735Z,928.37
2017-03-03T02:46:47.299Z,928.41
2017-03-03T02:47:01.897Z,928.39
2017-03-03T02:47:16.489Z,928.41
2017-03-03T02:47:31.064Z,928.39
2017-03-03T02:47:45.648Z,928.38
2017-03-03T02:48:00.210Z,928.39
2017-03-03T02:48:14.863Z,928.39
2017-03-03T02:48:29.441Z,928.42
2017-03-03T02:48:44.055Z,928.39
2017-03-03T02:48:58.599Z,928.39
2017-03-03T02:49:13.229Z,928.39
2017-03-03T02:49:27.846Z,928.39
2017-03-03T02:49:42.696Z,928.4
2017-03-03T02:49:57.232Z,928.38
2017-03-03T02:50:11.812Z,928.37
2017-03-03T02:50:26.853Z,928.4
2017-03-03T02:50:41.414Z,928.39
2017-03-03T02:50:56.077Z,928.34
2017-03-03T02:51:10.700Z,928.36
2017-03-03T02:51:25.319Z,928.34
2017-03-03T02:51:39.916Z,928.34
2017-03-03T02:51:54.523Z,928.37
2017-03-03T02:52:09.110Z,928.36
2017-03-03T02:52:23.692Z,928.33
2017-03-03T02:52:38.281Z,928.37
2017-03-03T02:52:52.852Z,928.35
2017-03-03T02:53:07.458Z,928.35
2017-03-03T02:53:22.049Z,928.35
2017-03-03T02:53:36.675Z,928.33
2017-03-03T02:53:51.292Z,928.32
2017-03-03T02:54:05.884Z,928.3
2017-03-03T02:54:20.486Z,928.31
2017-03-03T02:54:35.041Z,928.33
2017-03-03T02:54:49.663Z,928.28
2017-03-03T02:55:04.286Z,928.29
2017-03-03T02:55:18.904Z,928.31
2017-03-03T02:55:33.483Z,928.32
2017-03-03T02:55:48.144Z,928.27
2017-03-03T02:56:02.682Z,928.29
2017-03-03T02:56:17.265Z,928.3
2017-03-03T02:56:31.915Z,928.29
2017-03-03T02:56:46.449Z,928.32
2017-03-03T02:57:01.024Z,928.29
2017-03-03T02:57:15.651Z,928.28
2017-03-03T02:57:30.234Z,928.32
2017-03-03T02:57:44.775Z,928.29
2017-03-03T02:57:59.406Z,928.27
2017-03-03T02:58:14.023Z,928.29
2017-03-03T02:58:28.597Z,928.3
2017-03-03T02:58:43.204Z,928.28
2017-03-03T02:58:57.797Z,928.3
2017-03-03T02:59:12.379Z,928.28
2017-03-03T02:59:26.959Z,928.28
2017-03-03T02:59:41.558Z,928.27
2017-03-03T02:59:56.174Z,928.25
2017-03-03T03:00:10.667Z,928.27
2017-03-03T03:00:25.405Z,928.27
2017-03-03T03:00:40.005Z,928.3
2017-03-03T03:00:54.557Z,928.3
2017-03-03T03:01:09.150Z,928.28
2017-03-03T03:01:23.731Z,928.29
2017-03-03T03:01:38.331Z,928.28
2017-03-03T03:01:52.857Z,928.32
2017-03-03T03:02:07.417Z,928.27
2017-03-03T03:02:21.982Z,928.27
2017-03-03T03:02:36.607Z,928.32
2017-03-03T03:02:51.258Z,928.28
2017-03-03T03:03:05.818Z,928.31
2017-03-03T03:03:20.415Z,928.3